Flight Track Log - Related Links

Times and Time Zones

All times are in EDT time to prevent confusion due to time zone crossing. See the CAV543 flight status page for this flight to view local times or setup timezone preferences in your user account.

Time Position Orientation Groundspeed Altitude Reporting Facility
EDT Latitude Longitude Course Direction KTS MPH feet Rate Location/Type
Tue 09:51:15 AM 55.8667 -97.7869 208° Southwest  Level FlightAware Approximate
Tue 09:51:46 AM 55.8167 -97.8333 29° Northeast 130 150 2,300  Level Winnipeg Center
Tue 09:52:46 AM 55.8500 -97.8000 48° Northeast 150 173 3,600 1,300 Climbing Winnipeg Center
Tue 09:53:46 AM 55.8833 -97.7333 11° North 160 184 4,900 1,300 Climbing Winnipeg Center
Tue 09:54:46 AM 55.9333 -97.7167 48° Northeast 180 207 6,200 1,250 Climbing Winnipeg Center
Tue 09:55:46 AM 55.9667 -97.6500 37° Northeast 190 219 7,400 1,300 Climbing Winnipeg Center
Tue 09:56:46 AM 56.0167 -97.5833 40° Northeast 190 219 8,800 1,200 Climbing Winnipeg Center
Tue 09:57:46 AM 56.0500 -97.5333 20° North 180 207 9,800 1,000 Climbing Winnipeg Center
Tue 09:58:46 AM 56.1000 -97.5000 29° Northeast 190 219 10,800 1,100 Climbing Winnipeg Center
Tue 09:59:46 AM 56.1500 -97.4500 37° Northeast 200 230 12,000 1,100 Climbing Winnipeg Center
Tue 10:00:46 AM 56.2000 -97.3833 48° Northeast 200 230 13,000 1,150 Climbing Winnipeg Center
Tue 10:01:46 AM 56.2333 -97.3167 29° Northeast 200 230 14,300 1,150 Climbing Winnipeg Center
Tue 10:02:46 AM 56.2833 -97.2667 36° Northeast 210 242 15,300 1,100 Climbing Winnipeg Center
Tue 10:03:46 AM 56.3333 -97.2000 29° Northeast 210 242 16,500 1,050 Climbing Winnipeg Center
Tue 10:04:46 AM 56.3833 -97.1500 36° Northeast 210 242 17,400 1,000 Climbing Winnipeg Center
Tue 10:05:46 AM 56.4333 -97.0833 36° Northeast 210 242 18,500 950 Climbing Winnipeg Center
Tue 10:06:46 AM 56.4833 -97.0167 29° Northeast 210 242 19,300 800 Climbing Winnipeg Center
Tue 10:07:46 AM 56.5333 -96.9667 36° Northeast 220 253 20,100 850 Climbing Winnipeg Center
Tue 10:08:46 AM 56.5833 -96.9000 36° Northeast 220 253 21,000 450 Climbing Winnipeg Center
Tue 10:09:46 AM 56.6333 -96.8333 34° Northeast 230 265 21,000  Level Winnipeg Center
Tue 10:10:46 AM 56.7000 -96.7500 36° Northeast 260 299 21,000  Level Winnipeg Center
Tue 10:11:46 AM 56.7500 -96.6833 34° Northeast 270 311 21,000  Level Winnipeg Center
Tue 10:12:46 AM 56.8167 -96.6000 29° Northeast 270 311 21,000  Level Winnipeg Center
Tue 10:13:46 AM 56.8833 -96.5333 39° Northeast 280 322 21,000  Level Winnipeg Center
Tue 10:14:46 AM 56.9500 -96.4333 22° Northeast 280 322 21,000  Level Winnipeg Center
Tue 10:15:46 AM 57.0167 -96.3833 47° Northeast 280 322 21,000  Level Winnipeg Center
Tue 10:16:46 AM 57.0667 -96.2833 39° Northeast 280 322 21,000  Level Winnipeg Center
Tue 10:17:46 AM 57.1333 -96.1833 22° Northeast 280 322 21,000  Level Winnipeg Center
Tue 10:18:46 AM 57.2000 -96.1333 39° Northeast 280 322 21,000  Level Winnipeg Center
Tue 10:19:46 AM 57.2667 -96.0333 28° Northeast 280 322 21,000  Level Winnipeg Center
Tue 10:20:46 AM 57.3333 -95.9667 39° Northeast 280 322 21,000  Level Winnipeg Center
Tue 10:21:46 AM 57.4000 -95.8667 34° Northeast 280 322 21,000  Level Winnipeg Center
Tue 10:22:46 AM 57.4667 -95.7833 36° Northeast 280 322 21,000  Level Winnipeg Center
Tue 10:23:46 AM 57.5167 -95.7167 39° Northeast 280 322 21,000  Level Winnipeg Center
Tue 10:24:46 AM 57.5833 -95.6167 28° Northeast 280 322 21,000  Level Winnipeg Center
Tue 10:25:46 AM 57.6500 -95.5500 39° Northeast 280 322 21,000  Level Winnipeg Center
Tue 10:26:46 AM 57.7167 -95.4500 28° Northeast 280 322 21,000  Level Winnipeg Center
Tue 10:27:46 AM 57.7667 -95.4000 39° Northeast 280 322 21,000  Level Winnipeg Center
Tue 10:28:46 AM 57.8333 -95.3000 39° Northeast 270 311 21,000  Level Winnipeg Center
Tue 10:29:46 AM 57.9000 -95.2000 28° Northeast 270 311 21,000  Level Winnipeg Center
Tue 10:30:46 AM 57.9667 -95.1333 38° Northeast 280 322 21,000  Level Winnipeg Center
Tue 10:31:46 AM 58.0333 -95.0333 35° Northeast 270 311 21,000  Level Winnipeg Center
Tue 10:32:46 AM 58.0833 -94.9667 38° Northeast 270 311 21,000  Level Winnipeg Center
Tue 10:33:46 AM 58.1500 -94.8667 28° Northeast 270 311 21,000 -800 Level Winnipeg Center
Tue 10:34:46 AM 58.2167 -94.8000 37° Northeast 290 334 19,400 -1,600 Descending Winnipeg Center
Tue 10:42:15 AM 58.5852 -94.2649 35° Northeast  Level FlightAware Approximate
Tue 10:43:15 AM 58.6364 -94.1955 38° Northeast  Level FlightAware Approximate
Tue 10:44:15 AM 58.6860 -94.1211 29° Northeast  Level FlightAware Approximate
Tue 10:45:15 AM 58.7411 -94.0629 209° Southwest  Level Estimated
Tue 10:46:15 AM 58.6860 -94.1213 38° Northeast  Level Estimated
Tue 10:47:15 AM 58.7333 -94.0500 38° Northeast  Level FlightAware Approximate

Login

Don't have an account? Register now (free) for customized features, flight alerts, and more!